Time;durP1;ratioP1;P1;durP2;ratioP2;P2;SDS_P1;SDS_P2;PMS_P1;PMS_P2;Temp;Humidity;BMP_temperature;BMP_pressure;BME280_temperature;BME280_humidity;BME280_pressure;Samples;Min_cycle;Max_cycle;Signal;HPM_P1;HPM_P2
2023/02/10 00:01:45;;;;;;;8.32;6.07;;;;;;;0.18;56.88;100875.06;5074992;28;20041;-53
2023/02/10 00:04:12;;;;;;;9.25;5.82;;;;;;;0.18;56.39;100870.69;5074740;28;20051;-55
2023/02/10 00:06:40;;;;;;;9.57;6.03;;;;;;;0.16;55.97;100871.59;5075512;28;20048;-53
2023/02/10 00:09:07;;;;;;;10.15;5.95;;;;;;;0.14;56.04;100872.50;5075326;28;20046;-52
2023/02/10 00:14:17;;;;;;;9.85;6.22;;;;;;;0.09;56.19;100850.66;5075077;28;20533;-55
2023/02/10 00:16:43;;;;;;;10.10;6.05;;;;;;;-0.01;56.39;100838.56;5075121;28;20032;-56
2023/02/10 00:19:09;;;;;;;9.38;6.05;;;;;;;0.12;56.27;100841.81;5075233;28;20042;-50
2023/02/10 00:21:34;;;;;;;10.27;6.10;;;;;;;0.10;56.13;100849.75;5075041;28;20119;-53
2023/02/10 00:24:00;;;;;;;8.63;6.07;;;;;;;0.07;56.38;100846.31;5074448;28;20540;-52
2023/02/10 00:26:26;;;;;;;10.30;5.97;;;;;;;0.09;56.06;100845.41;5075144;28;20020;-55
2023/02/10 00:28:51;;;;;;;7.75;5.95;;;;;;;-0.15;55.94;100808.16;5075032;28;20021;-57
2023/02/10 00:31:18;;;;;;;9.75;5.90;;;;;;;0.09;55.82;100834.88;5075260;28;20432;-52
2023/02/10 00:33:44;;;;;;;9.68;6.70;;;;;;;0.00;55.94;100824.53;5074798;28;20109;-51
2023/02/10 00:36:13;;;;;;;8.82;5.63;;;;;;;0.06;56.22;100829.66;5074976;28;20439;-53
2023/02/10 00:38:40;;;;;;;11.38;6.22;;;;;;;0.06;55.99;100827.03;5074632;28;20064;-50
2023/02/10 00:41:09;;;;;;;9.65;6.40;;;;;;;0.08;55.85;100824.34;5074529;28;20048;-53
2023/02/10 00:43:45;;;;;;;11.23;6.43;;;;;;;0.05;56.16;100822.66;5074321;28;20044;-53
2023/02/10 00:46:14;;;;;;;8.73;6.00;;;;;;;0.07;56.46;100825.25;5074482;28;20033;-52
2023/02/10 00:48:40;;;;;;;7.72;5.13;;;;;;;0.04;55.93;100812.16;5074716;28;20032;-51
2023/02/10 00:51:06;;;;;;;11.20;5.97;;;;;;;-0.05;55.99;100800.94;5074788;28;20443;-51
2023/02/10 00:53:33;;;;;;;7.68;5.10;;;;;;;-0.05;55.75;100794.78;5074713;28;20060;-50
2023/02/10 00:55:58;;;;;;;9.18;5.50;;;;;;;-0.03;55.79;100798.25;5057059;28;20028;-52
2023/02/10 00:58:24;;;;;;;10.35;5.60;;;;;;;0.04;56.00;100799.88;5074089;28;20078;-52
2023/02/10 01:00:50;;;;;;;8.18;5.40;;;;;;;0.00;55.61;100787.69;5074546;28;20465;-52
2023/02/10 01:03:16;;;;;;;9.10;5.60;;;;;;;-0.23;55.71;100757.44;5074258;28;20024;-52
2023/02/10 01:05:41;;;;;;;8.98;5.47;;;;;;;-0.11;55.63;100766.84;5074327;28;20525;-55
2023/02/10 01:08:07;;;;;;;9.52;5.55;;;;;;;-0.23;55.58;100744.28;5073113;28;20447;-58
2023/02/10 01:10:34;;;;;;;9.98;5.47;;;;;;;-0.04;55.53;100775.44;5072945;28;20039;-53
2023/02/10 01:13:01;;;;;;;11.25;5.85;;;;;;;-0.05;55.39;100774.59;5074187;28;20173;-56
2023/02/10 01:15:26;;;;;;;8.65;5.32;;;;;;;-0.19;55.65;100737.16;5073752;28;20115;-54
2023/02/10 01:17:52;;;;;;;11.95;5.80;;;;;;;-0.03;55.30;100761.38;5074085;28;20119;-53
2023/02/10 01:20:18;;;;;;;9.32;5.72;;;;;;;-0.03;55.01;100766.66;5073836;28;20040;-51
2023/02/10 01:22:43;;;;;;;12.05;5.70;;;;;;;-0.04;55.27;100762.28;5073713;28;20848;-54
2023/02/10 01:25:09;;;;;;;9.40;5.50;;;;;;;-0.10;55.14;100755.41;5073835;28;20289;-53
2023/02/10 01:27:34;;;;;;;8.25;5.13;;;;;;;-0.09;55.27;100757.16;5073926;28;20024;-50
2023/02/10 01:30:00;;;;;;;9.77;5.22;;;;;;;-0.11;54.79;100752.78;5073390;28;20032;-50
2023/02/10 01:32:25;;;;;;;10.65;5.75;;;;;;;-0.15;54.92;100739.72;5073567;28;20151;-52
2023/02/10 01:34:51;;;;;;;8.40;5.45;;;;;;;-0.17;55.03;100738.88;5073959;28;20024;-54
2023/02/10 01:37:16;;;;;;;10.65;5.22;;;;;;;-0.21;54.57;100737.22;5073921;28;20028;-53
2023/02/10 01:39:41;;;;;;;10.27;5.63;;;;;;;-0.20;55.12;100728.41;5073105;28;20126;-55
2023/02/10 01:42:12;;;;;;;9.57;5.38;;;;;;;-0.24;55.08;100726.75;5073403;28;20053;-52
2023/02/10 01:44:40;;;;;;;10.02;6.00;;;;;;;-0.24;54.99;100723.25;5073803;28;20051;-54
2023/02/10 01:47:06;;;;;;;13.00;6.25;;;;;;;-0.28;55.26;100725.06;5073700;28;20125;-56
2023/02/10 01:49:39;;;;;;;11.05;6.47;;;;;;;-0.34;55.38;100730.47;5072870;28;20056;-50
2023/02/10 01:52:10;;;;;;;11.13;6.53;;;;;;;-0.40;55.77;100723.53;5073167;28;20363;-53
2023/02/10 01:54:43;;;;;;;12.68;6.35;;;;;;;-0.39;55.63;100714.75;5072739;28;20426;-53
2023/02/10 01:57:09;;;;;;;11.30;6.22;;;;;;;-0.50;55.75;100712.34;5073311;28;20032;-53
2023/02/10 01:59:38;;;;;;;13.63;6.93;;;;;;;-0.42;56.02;100717.47;5072311;28;20602;-56
2023/02/10 02:02:06;;;;;;;13.32;7.32;;;;;;;-0.44;55.84;100727.16;5073290;28;20045;-55
2023/02/10 02:04:37;;;;;;;12.75;7.30;;;;;;;-0.44;55.88;100722.75;5073431;28;20462;-51
2023/02/10 02:07:03;;;;;;;12.18;6.22;;;;;;;-0.50;55.95;100709.72;5073339;28;20029;-52
2023/02/10 02:09:28;;;;;;;11.50;6.68;;;;;;;-0.50;56.39;100707.09;5072387;28;20031;-54
2023/02/10 02:12:21;;;;;;;11.73;6.38;;;;;;;-0.44;56.31;100703.47;5073255;28;20033;-51
2023/02/10 02:15:03;;;;;;;10.20;6.40;;;;;;;-0.57;56.03;100673.91;5073339;28;20106;-53
2023/02/10 02:17:46;;;;;;;13.00;7.10;;;;;;;-0.44;56.08;100704.34;5073052;28;20032;-52
2023/02/10 02:23:05;;;;;;;12.45;6.80;;;;;;;-0.43;55.83;100697.31;5072956;28;20080;-54
2023/02/10 02:25:36;;;;;;;12.25;6.57;;;;;;;-0.49;56.46;100681.66;5071898;28;20383;-53
2023/02/10 02:28:07;;;;;;;11.93;7.22;;;;;;;-0.46;56.06;100686.84;5072433;28;20093;-54
2023/02/10 02:31:17;;;;;;;11.18;6.70;;;;;;;-0.41;56.66;100676.25;5072015;28;20028;-51
2023/02/10 02:33:51;;;;;;;11.70;6.65;;;;;;;-0.44;56.11;100675.41;5072781;28;20320;-51
2023/02/10 02:36:23;;;;;;;12.40;5.95;;;;;;;-0.46;56.12;100673.69;5072513;28;20036;-52
2023/02/10 02:38:49;;;;;;;12.00;6.50;;;;;;;-0.56;55.49;100651.97;5071908;28;20028;-51
2023/02/10 02:41:25;;;;;;;13.38;7.22;;;;;;;-0.54;56.38;100655.44;5072256;28;20408;-51
2023/02/10 02:43:51;;;;;;;12.23;6.88;;;;;;;-0.74;55.98;100629.56;5072846;28;20086;-53
2023/02/10 02:47:00;;;;;;;13.30;7.45;;;;;;;-0.53;56.28;100646.66;5071954;28;20028;-52
2023/02/10 02:49:33;;;;;;;12.70;7.18;;;;;;;-0.62;56.44;100631.91;5072360;28;20700;-51
2023/02/10 02:52:37;;;;;;;12.60;7.63;;;;;;;-0.47;56.60;100636.00;5072247;28;20072;-60
2023/02/10 02:55:13;;;;;;;13.88;7.35;;;;;;;-0.58;56.11;100624.84;5065484;28;20036;-54
2023/02/10 02:57:49;;;;;;;14.02;7.88;;;;;;;-0.56;56.27;100625.69;5071787;28;20035;-53
2023/02/10 03:00:23;;;;;;;14.70;8.70;;;;;;;-0.61;56.37;100631.03;5071820;28;20044;-52
2023/02/10 03:02:49;;;;;;;13.43;8.20;;;;;;;-0.61;56.59;100631.03;5072343;28;20035;-49
2023/02/10 03:05:21;;;;;;;15.13;9.50;;;;;;;-0.60;56.31;100624.00;5071788;28;20438;-53
2023/02/10 03:07:47;;;;;;;13.52;8.50;;;;;;;-0.61;56.35;100622.28;5072462;28;20075;-53
2023/02/10 03:10:13;;;;;;;17.40;8.77;;;;;;;-0.58;56.65;100616.94;5071673;28;20114;-53
2023/02/10 03:12:38;;;;;;;15.95;8.95;;;;;;;-0.65;56.61;100589.06;5071374;28;20033;-55
2023/02/10 03:15:04;;;;;;;14.77;8.98;;;;;;;-0.50;56.57;100603.63;5072397;28;20029;-51
2023/02/10 03:17:29;;;;;;;16.15;9.40;;;;;;;-0.52;56.61;100602.81;5072368;28;20024;-52
2023/02/10 03:19:55;;;;;;;13.00;8.27;;;;;;;-0.42;56.33;100585.06;5071683;28;20609;-51
2023/02/10 03:22:20;;;;;;;15.50;9.13;;;;;;;-0.49;56.34;100590.44;5072237;28;20044;-54
2023/02/10 03:24:46;;;;;;;17.42;9.88;;;;;;;-0.50;56.56;100593.13;5072092;28;20024;-55
2023/02/10 03:27:11;;;;;;;16.95;10.68;;;;;;;-0.56;56.33;100580.09;5071108;28;20142;-52
2023/02/10 03:29:37;;;;;;;16.95;9.98;;;;;;;-0.58;56.64;100572.25;5071671;28;20024;-54
2023/02/10 03:32:05;;;;;;;20.10;10.93;;;;;;;-0.60;56.38;100566.16;5075977;28;20029;-50
2023/02/10 03:34:31;;;;;;;18.05;10.65;;;;;;;-0.72;56.63;100538.34;5076454;28;20028;-56
2023/02/10 03:36:56;;;;;;;19.90;10.60;;;;;;;-0.82;56.67;100524.53;5076951;28;20024;-55
2023/02/10 03:39:22;;;;;;;19.95;11.60;;;;;;;-0.67;56.81;100554.03;5058427;28;20029;-53
2023/02/10 03:41:47;;;;;;;19.30;10.38;;;;;;;-0.67;56.72;100554.91;5075971;28;20059;-55
2023/02/10 03:44:13;;;;;;;18.98;10.95;;;;;;;-0.73;57.02;100547.16;5076243;28;20036;-54
2023/02/10 03:46:38;;;;;;;20.10;11.35;;;;;;;-0.68;56.93;100540.00;5075896;28;20059;-51
2023/02/10 03:49:04;;;;;;;19.10;11.10;;;;;;;-0.73;56.85;100528.75;5075252;28;20112;-55
2023/02/10 03:51:30;;;;;;;20.23;11.55;;;;;;;-0.74;57.02;100527.84;5076149;28;20040;-50
2023/02/10 03:53:55;;;;;;;20.10;11.18;;;;;;;-0.73;57.02;100519.06;5074559;28;20090;-52
2023/02/10 03:56:21;;;;;;;19.10;11.60;;;;;;;-0.76;56.82;100524.41;5074425;28;20036;-54
2023/02/10 03:58:46;;;;;;;20.67;11.52;;;;;;;-0.80;57.22;100511.38;5075732;28;20400;-52
2023/02/10 04:01:15;;;;;;;22.17;11.95;;;;;;;-0.72;56.70;100504.16;5075818;28;20438;-49
2023/02/10 04:03:40;;;;;;;22.05;12.02;;;;;;;-0.80;57.04;100503.50;5075432;28;20124;-50
2023/02/10 04:06:07;;;;;;;23.25;12.68;;;;;;;-0.81;57.03;100515.75;5075476;28;20098;-54
2023/02/10 04:08:33;;;;;;;22.25;13.43;;;;;;;-0.84;57.54;100509.69;5074614;28;20368;-52
2023/02/10 04:10:58;;;;;;;23.30;13.68;;;;;;;-0.88;57.69;100498.41;5075499;28;20058;-55
2023/02/10 04:13:23;;;;;;;20.58;11.57;;;;;;;-0.83;57.17;100500.94;5074954;28;20032;-52
2023/02/10 04:16:03;;;;;;;23.92;12.57;;;;;;;-0.80;57.35;100506.97;5075092;28;20036;-54
2023/02/10 04:18:29;;;;;;;21.90;13.05;;;;;;;-1.04;57.47;100475.06;5074174;28;20027;-57
2023/02/10 04:20:54;;;;;;;22.35;13.75;;;;;;;-0.96;57.56;100489.84;5074279;28;20382;-62
2023/02/10 04:23:20;;;;;;;21.58;12.80;;;;;;;-1.03;57.10;100473.31;5073860;28;20032;-53
2023/02/10 04:25:45;;;;;;;21.55;12.88;;;;;;;-1.25;57.14;100436.13;5075030;28;20110;-48
2023/02/10 04:28:10;;;;;;;21.05;12.38;;;;;;;-0.98;57.47;100491.59;5075404;28;20035;-49
2023/02/10 04:30:36;;;;;;;25.23;13.90;;;;;;;-1.24;58.05;100435.22;5075059;28;20096;-49
2023/02/10 04:33:01;;;;;;;22.48;12.60;;;;;;;-1.01;57.80;100475.00;5075220;28;20068;-48
2023/02/10 04:35:27;;;;;;;22.70;13.70;;;;;;;-0.98;58.24;100475.84;5074666;28;20060;-50
2023/02/10 04:37:52;;;;;;;23.40;12.60;;;;;;;-0.97;57.73;100464.41;5074144;28;20123;-48
2023/02/10 04:40:18;;;;;;;22.98;12.85;;;;;;;-1.03;58.02;100465.44;5074463;28;20127;-47
2023/02/10 04:42:43;;;;;;;23.20;13.00;;;;;;;-1.05;58.26;100472.50;5074612;28;20347;-49
2023/02/10 04:45:09;;;;;;;22.85;13.13;;;;;;;-1.07;58.34;100467.25;5074342;28;20184;-52
2023/02/10 04:47:34;;;;;;;18.38;11.32;;;;;;;-1.08;58.34;100469.94;5074484;28;20037;-49
2023/02/10 04:50:00;;;;;;;21.38;11.93;;;;;;;-1.09;58.34;100484.81;5074376;28;20435;-48
2023/02/10 04:52:25;;;;;;;20.95;12.30;;;;;;;-1.13;58.01;100469.16;5073829;28;20082;-49
2023/02/10 04:54:51;;;;;;;21.73;11.85;;;;;;;-1.10;58.36;100469.09;5073916;28;20120;-51
2023/02/10 04:57:16;;;;;;;20.52;11.70;;;;;;;-1.09;58.59;100474.31;5074598;28;20052;-51
2023/02/10 04:59:41;;;;;;;20.13;11.38;;;;;;;-1.03;58.68;100473.31;5073758;28;20036;-51
2023/02/10 05:02:07;;;;;;;19.80;11.32;;;;;;;-1.02;58.24;100465.38;5073916;28;20032;-48
2023/02/10 05:04:32;;;;;;;22.30;12.98;;;;;;;-1.02;58.28;100464.53;5074688;28;20436;-50
2023/02/10 05:06:58;;;;;;;23.77;11.65;;;;;;;-0.99;58.05;100463.59;5074285;28;20424;-47
2023/02/10 05:09:27;;;;;;;19.85;10.85;;;;;;;-0.98;57.71;100473.19;5073734;28;20410;-50
2023/02/10 05:11:52;;;;;;;19.52;11.35;;;;;;;-1.09;58.12;100463.81;5072207;28;20358;-47
2023/02/10 05:14:18;;;;;;;19.35;10.65;;;;;;;-1.16;58.41;100468.31;5073455;28;20021;-49
2023/02/10 05:16:43;;;;;;;21.92;11.73;;;;;;;-1.25;57.86;100450.13;5072892;28;20032;-49
2023/02/10 05:19:09;;;;;;;23.30;12.20;;;;;;;-1.28;58.49;100478.22;5074635;28;20070;-47
2023/02/10 05:21:35;;;;;;;19.33;11.38;;;;;;;-1.33;58.99;100471.31;5074023;28;20071;-49
2023/02/10 05:24:01;;;;;;;21.08;12.25;;;;;;;-1.35;58.83;100459.97;5073719;28;20064;-50
2023/02/10 05:26:27;;;;;;;19.95;11.90;;;;;;;-1.31;59.19;100459.00;5074559;28;20040;-48
2023/02/10 05:28:52;;;;;;;20.92;11.27;;;;;;;-1.24;58.51;100446.63;5074285;28;20024;-46
2023/02/10 05:31:18;;;;;;;22.15;12.20;;;;;;;-1.22;58.91;100457.06;5073848;28;20028;-49
2023/02/10 05:33:43;;;;;;;19.88;11.63;;;;;;;-1.24;58.41;100445.72;5073959;28;20127;-49
2023/02/10 05:36:09;;;;;;;21.15;10.32;;;;;;;-1.37;59.09;100432.88;5074524;28;20170;-49
2023/02/10 05:38:34;;;;;;;20.17;10.82;;;;;;;-1.32;59.23;100438.03;5074130;28;20362;-47
2023/02/10 05:41:00;;;;;;;23.45;11.77;;;;;;;-1.40;59.39;100437.31;5072898;28;20365;-46
2023/02/10 05:43:26;;;;;;;21.02;11.68;;;;;;;-1.35;58.93;100435.44;5074086;28;20056;-47
2023/02/10 05:45:51;;;;;;;16.58;10.57;;;;;;;-1.39;58.65;100421.53;5073243;28;20439;-47
2023/02/10 05:48:16;;;;;;;19.40;10.32;;;;;;;-1.41;58.99;100414.59;5073705;28;20032;-48
2023/02/10 05:50:42;;;;;;;19.15;11.02;;;;;;;-1.32;59.12;100410.00;5073778;28;20028;-50
2023/02/10 05:53:08;;;;;;;19.75;11.05;;;;;;;-1.14;58.29;100399.09;5073599;28;20114;-48
2023/02/10 05:55:34;;;;;;;19.42;10.70;;;;;;;-0.60;57.65;100408.34;5074191;28;20028;-50
2023/02/10 05:57:59;;;;;;;18.08;10.60;;;;;;;-0.03;55.73;100409.50;5073643;28;20070;-49
2023/02/10 06:00:24;;;;;;;19.05;11.43;;;;;;;0.47;54.73;100402.81;5073414;28;20036;-47
2023/02/10 06:02:50;;;;;;;19.92;10.95;;;;;;;0.74;53.61;100389.72;5073885;28;20066;-49
2023/02/10 06:05:15;;;;;;;19.20;10.90;;;;;;;1.00;53.20;100388.91;5073827;28;20421;-49
2023/02/10 06:07:41;;;;;;;18.52;10.77;;;;;;;1.33;52.06;100381.72;5073449;28;20029;-48
2023/02/10 06:10:07;;;;;;;19.83;11.38;;;;;;;1.56;51.52;100384.44;5073491;28;20173;-47
2023/02/10 06:12:32;;;;;;;21.00;11.38;;;;;;;1.58;51.77;100377.34;5073530;28;20032;-50
2023/02/10 06:14:58;;;;;;;21.60;11.82;;;;;;;1.52;51.06;100388.13;5073630;28;20446;-52
2023/02/10 06:17:24;;;;;;;19.25;11.35;;;;;;;1.57;51.35;100374.78;5073351;28;20033;-49
2023/02/10 06:19:49;;;;;;;20.00;11.23;;;;;;;2.60;50.09;100374.56;5073093;28;20114;-47
2023/02/10 06:22:15;;;;;;;20.50;11.18;;;;;;;4.93;44.69;100368.97;5073124;28;20028;-48
2023/02/10 06:24:41;;;;;;;19.02;10.88;;;;;;;6.47;40.88;100357.56;5073688;28;20036;-53
2023/02/10 06:27:07;;;;;;;15.57;10.40;;;;;;;7.35;39.16;100348.22;5073420;28;20037;-49
2023/02/10 06:29:32;;;;;;;17.83;10.98;;;;;;;9.21;35.91;100351.00;5072831;28;20099;-49
2023/02/10 06:31:58;;;;;;;18.35;11.55;;;;;;;9.85;33.67;100345.78;5072882;28;20107;-48
2023/02/10 06:34:23;;;;;;;20.35;11.45;;;;;;;8.96;34.45;100337.47;5073391;28;20077;-49
2023/02/10 06:36:49;;;;;;;17.17;11.02;;;;;;;7.49;36.73;100339.44;5072779;28;20406;-50
2023/02/10 06:39:14;;;;;;;17.60;11.68;;;;;;;6.17;39.75;100339.69;5073156;28;20021;-51
2023/02/10 06:41:41;;;;;;;15.93;11.65;;;;;;;7.10;38.25;100332.81;5073314;28;20383;-50
2023/02/10 06:44:06;;;;;;;18.33;11.55;;;;;;;9.02;34.62;100321.03;5072797;28;20048;-49
2023/02/10 06:46:32;;;;;;;19.42;11.60;;;;;;;9.22;34.11;100299.28;5072905;28;20044;-49
2023/02/10 06:48:59;;;;;;;17.25;11.80;;;;;;;8.95;34.16;100293.03;5072786;28;20443;-48
2023/02/10 06:51:25;;;;;;;18.33;11.57;;;;;;;9.33;33.55;100270.88;5072718;28;20032;-51
2023/02/10 06:53:50;;;;;;;16.88;11.50;;;;;;;10.32;31.76;100265.78;5072960;28;20047;-51
2023/02/10 06:56:16;;;;;;;16.73;11.68;;;;;;;10.03;32.09;100282.13;5072405;28;20040;-50
2023/02/10 06:58:41;;;;;;;16.80;10.88;;;;;;;8.86;33.30;100277.59;5072609;28;20035;-53
2023/02/10 07:01:16;;;;;;;17.02;11.40;;;;;;;7.39;36.45;100283.19;5072338;28;20044;-52
2023/02/10 07:03:42;;;;;;;17.58;12.15;;;;;;;5.97;37.93;100274.28;5072481;28;20166;-51
2023/02/10 07:06:08;;;;;;;16.83;11.43;;;;;;;4.88;39.56;100258.63;5071805;28;20107;-49
2023/02/10 07:08:33;;;;;;;16.88;11.98;;;;;;;4.28;40.88;100248.28;5072531;28;20427;-48
2023/02/10 07:10:59;;;;;;;17.48;11.27;;;;;;;3.80;41.94;100243.41;5072212;28;20028;-47
2023/02/10 07:13:25;;;;;;;19.45;11.80;;;;;;;3.38;43.23;100228.56;5072332;28;20131;-51
2023/02/10 07:15:50;;;;;;;15.35;10.85;;;;;;;3.09;43.21;100222.72;5072953;28;20025;-54
2023/02/10 07:18:15;;;;;;;23.45;11.43;;;;;;;3.04;43.62;100209.72;5072287;28;20390;-48
2023/02/10 07:20:41;;;;;;;20.70;11.32;;;;;;;3.13;43.97;100224.31;5072776;28;20496;-48
2023/02/10 07:23:06;;;;;;;20.08;10.98;;;;;;;3.91;42.12;100211.13;5072999;28;20028;-50
2023/02/10 07:25:32;;;;;;;18.77;11.07;;;;;;;4.43;40.73;100212.22;5072475;28;20033;-49
2023/02/10 07:27:58;;;;;;;20.95;11.57;;;;;;;4.86;40.78;100218.03;5072413;28;20028;-48
2023/02/10 07:30:23;;;;;;;19.67;12.32;;;;;;;5.47;39.21;100196.34;5072943;28;20378;-52
2023/02/10 07:32:49;;;;;;;19.52;11.73;;;;;;;7.42;36.11;100194.19;5072552;28;20036;-49
2023/02/10 07:35:14;;;;;;;19.55;10.93;;;;;;;10.27;31.84;100189.47;5072495;28;20032;-48
2023/02/10 07:37:40;;;;;;;16.40;11.65;;;;;;;12.48;28.30;100173.31;5072603;28;20032;-48
2023/02/10 07:40:06;;;;;;;18.67;11.65;;;;;;;14.17;25.56;100195.66;5072866;28;20127;-48
2023/02/10 07:42:34;;;;;;;14.13;10.65;;;;;;;15.27;23.94;100174.81;5072352;28;20088;-51
2023/02/10 07:45:00;;;;;;;16.48;11.80;;;;;;;15.09;23.53;100169.34;5072243;28;20033;-50
2023/02/10 07:47:25;;;;;;;14.88;10.70;;;;;;;13.21;25.45;100167.19;5072413;28;20402;-49
2023/02/10 07:49:53;;;;;;;17.05;11.65;;;;;;;11.32;27.51;100170.84;5072683;28;20033;-49
2023/02/10 07:52:20;;;;;;;14.32;11.02;;;;;;;9.61;29.84;100170.06;5072319;28;20108;-47
2023/02/10 07:54:45;;;;;;;17.85;11.32;;;;;;;7.98;32.42;100161.44;5072414;28;20116;-60
2023/02/10 07:57:11;;;;;;;17.60;11.38;;;;;;;6.87;34.05;100170.84;5072095;28;20031;-50
2023/02/10 07:59:37;;;;;;;15.43;10.73;;;;;;;5.92;35.63;100154.09;5072632;28;20355;-51
2023/02/10 08:02:05;;;;;;;16.40;11.80;;;;;;;5.21;37.40;100153.47;5072218;28;20067;-48
2023/02/10 08:04:31;;;;;;;15.05;10.88;;;;;;;4.79;38.60;100160.06;5071866;28;20028;-50
2023/02/10 08:06:56;;;;;;;17.92;10.70;;;;;;;4.36;39.46;100165.75;5071954;28;20036;-47
2023/02/10 08:09:22;;;;;;;17.67;11.40;;;;;;;4.04;39.90;100161.06;5072628;28;20029;-48
2023/02/10 08:11:48;;;;;;;16.60;10.93;;;;;;;3.67;40.29;100163.66;5072252;28;20027;-47
2023/02/10 08:14:13;;;;;;;19.90;11.13;;;;;;;3.33;41.07;100153.75;5072080;28;20036;-47
2023/02/10 08:16:39;;;;;;;17.55;10.80;;;;;;;2.90;41.81;100151.25;5072649;28;20028;-47
2023/02/10 08:19:04;;;;;;;19.35;11.68;;;;;;;2.60;42.71;100160.41;5075910;28;20359;-49
2023/02/10 08:21:30;;;;;;;18.95;10.45;;;;;;;2.43;43.46;100156.72;5075916;28;20043;-50
2023/02/10 08:23:56;;;;;;;19.10;11.73;;;;;;;2.43;43.34;100153.22;5075294;28;20246;-49
2023/02/10 08:26:22;;;;;;;19.27;10.80;;;;;;;2.52;43.76;100150.16;5075321;28;20039;-48
2023/02/10 08:28:48;;;;;;;16.00;10.20;;;;;;;2.88;42.89;100156.59;5075952;28;20040;-52
2023/02/10 08:31:13;;;;;;;17.20;10.60;;;;;;;3.33;41.40;100135.25;5075740;28;20094;-47
2023/02/10 08:33:41;;;;;;;18.50;10.07;;;;;;;3.70;40.14;100128.25;5074915;28;20036;-51
2023/02/10 08:36:09;;;;;;;18.30;10.18;;;;;;;3.69;40.52;100134.47;5075129;28;20031;-47
2023/02/10 08:38:34;;;;;;;16.67;10.02;;;;;;;3.31;41.16;100130.03;5075084;28;20024;-50
2023/02/10 08:41:00;;;;;;;19.77;10.80;;;;;;;3.05;42.33;100117.97;5075169;28;20462;-51
2023/02/10 08:43:26;;;;;;;20.90;10.68;;;;;;;3.01;42.44;100133.97;5075021;28;20057;-47
2023/02/10 08:45:55;;;;;;;17.77;10.63;;;;;;;3.14;42.36;100138.75;5075063;28;20534;-50
2023/02/10 08:48:21;;;;;;;17.75;10.05;;;;;;;3.18;42.14;100112.97;5075255;28;20115;-46
2023/02/10 08:50:46;;;;;;;19.95;10.40;;;;;;;3.24;42.27;100104.75;5074899;28;20483;-49
2023/02/10 08:53:11;;;;;;;16.20;9.60;;;;;;;3.11;41.84;100081.53;5074539;28;20029;-48
2023/02/10 08:55:37;;;;;;;17.25;9.95;;;;;;;3.28;41.93;100099.25;5075063;28;20036;-50
2023/02/10 08:58:03;;;;;;;19.13;10.57;;;;;;;3.23;41.50;100085.41;5074874;28;20040;-50
2023/02/10 09:00:28;;;;;;;15.73;9.80;;;;;;;3.35;41.55;100086.63;5074983;28;20056;-49
2023/02/10 09:02:54;;;;;;;18.25;10.55;;;;;;;3.44;41.00;100051.75;5074831;28;20037;-50
2023/02/10 09:05:20;;;;;;;19.50;10.77;;;;;;;3.65;41.74;100054.31;5074775;28;20113;-57
2023/02/10 09:07:46;;;;;;;15.88;8.68;;;;;;;4.01;40.30;100057.91;5074858;28;20450;-51
2023/02/10 09:10:12;;;;;;;13.43;7.95;;;;;;;4.06;39.39;100047.91;5074861;28;20047;-49
2023/02/10 09:12:39;;;;;;;17.02;9.85;;;;;;;3.88;39.79;100037.31;5074371;28;20107;-52
2023/02/10 09:15:05;;;;;;;16.20;8.95;;;;;;;3.66;39.22;100039.31;5074383;28;20107;-48
2023/02/10 09:17:31;;;;;;;18.33;9.80;;;;;;;3.49;40.82;100032.16;5074700;28;20128;-48
2023/02/10 09:19:56;;;;;;;14.60;9.30;;;;;;;3.50;40.60;100029.44;5074535;28;20036;-48
2023/02/10 09:22:22;;;;;;;16.05;8.80;;;;;;;3.58;40.46;100021.97;5074209;28;20024;-49
2023/02/10 09:24:49;;;;;;;15.98;9.90;;;;;;;3.74;40.37;100010.66;5074781;28;20504;-50
2023/02/10 09:27:18;;;;;;;16.00;9.70;;;;;;;3.82;40.11;100008.47;5074740;28;20062;-51
2023/02/10 09:29:44;;;;;;;15.32;9.23;;;;;;;3.86;39.61;100006.53;5073330;28;20037;-48
2023/02/10 09:32:10;;;;;;;15.63;9.40;;;;;;;3.74;39.93;99994.75;5074043;28;20028;-49
2023/02/10 09:34:35;;;;;;;15.32;9.32;;;;;;;3.61;39.55;99967.16;5074229;28;20071;-49
2023/02/10 09:37:02;;;;;;;16.95;9.82;;;;;;;3.48;39.97;99983.66;5074208;28;20036;-47
2023/02/10 09:39:28;;;;;;;15.38;8.90;;;;;;;3.34;40.62;99970.22;5073885;28;20029;-49
2023/02/10 09:42:06;;;;;;;17.45;9.07;;;;;;;3.32;41.00;99983.56;5073756;28;20040;-49
2023/02/10 09:44:35;;;;;;;15.70;9.27;;;;;;;3.20;40.70;99984.13;5074122;28;20467;-52
2023/02/10 09:47:01;;;;;;;15.15;8.65;;;;;;;3.06;40.52;99976.84;5074332;28;20036;-49
2023/02/10 09:49:45;;;;;;;17.80;8.82;;;;;;;2.96;42.11;99982.56;5073854;28;20333;-48
2023/02/10 09:52:32;;;;;;;16.08;9.48;;;;;;;2.78;41.33;99994.00;5073730;28;20032;-49
2023/02/10 09:54:58;;;;;;;15.43;8.80;;;;;;;2.60;41.59;99998.34;5073997;28;20028;-49
2023/02/10 09:58:04;;;;;;;17.83;9.38;;;;;;;2.56;42.29;100002.88;5073877;28;20453;-50
2023/02/10 10:00:39;;;;;;;16.87;9.50;;;;;;;2.59;41.77;100002.75;5073501;28;20446;-51
2023/02/10 10:03:10;;;;;;;16.58;9.32;;;;;;;2.65;41.66;100002.50;5073675;28;20051;-52
2023/02/10 10:06:00;;;;;;;15.65;9.30;;;;;;;2.83;41.70;100002.56;5074080;28;20039;-47
2023/02/10 10:08:58;;;;;;;15.45;9.23;;;;;;;2.93;41.34;99993.28;5073388;28;20040;-48
2023/02/10 10:11:50;;;;;;;14.80;8.73;;;;;;;3.09;41.37;99982.84;5073347;28;20039;-53
2023/02/10 10:14:33;;;;;;;16.15;9.13;;;;;;;3.11;41.25;99980.13;5073485;28;20094;-48
2023/02/10 10:17:01;;;;;;;17.25;9.48;;;;;;;3.19;40.72;99977.13;5073796;28;20032;-50
2023/02/10 10:20:04;;;;;;;23.65;9.10;;;;;;;3.22;41.45;99969.91;5073032;28;20165;-49
2023/02/10 10:22:54;;;;;;;18.50;8.98;;;;;;;3.19;41.29;99945.38;5073204;28;20551;-52
2023/02/10 10:25:19;;;;;;;16.73;8.88;;;;;;;3.08;40.77;99957.31;5073770;28;20029;-50
2023/02/10 10:28:06;;;;;;;15.98;8.68;;;;;;;3.12;40.81;99932.44;5073223;28;20042;-50
2023/02/10 10:30:45;;;;;;;19.25;9.38;;;;;;;3.05;40.82;99932.78;5072927;28;20039;-49
2023/02/10 10:33:24;;;;;;;18.88;9.93;;;;;;;3.11;41.27;99948.38;5072782;28;20056;-49
2023/02/10 10:35:50;;;;;;;17.73;9.65;;;;;;;3.11;41.29;99935.16;5073157;28;20354;-52
2023/02/10 10:38:29;;;;;;;13.13;8.50;;;;;;;3.22;40.85;99935.50;5073263;28;20032;-50
2023/02/10 10:40:59;;;;;;;16.95;9.15;;;;;;;3.11;40.01;99912.19;5073282;28;20091;-50
2023/02/10 10:43:29;;;;;;;14.65;8.27;;;;;;;3.01;39.49;99906.50;5072326;28;20067;-46
2023/02/10 10:46:11;;;;;;;15.23;8.45;;;;;;;2.98;39.64;99922.50;5073308;28;20047;-50
2023/02/10 10:48:40;;;;;;;15.63;8.75;;;;;;;2.84;40.40;99902.03;5072896;28;20051;-49
2023/02/10 10:51:06;;;;;;;15.60;8.02;;;;;;;2.81;40.34;99903.94;5073119;28;20111;-50
2023/02/10 10:53:42;;;;;;;14.93;8.05;;;;;;;2.89;40.47;99904.41;5072921;28;20124;-48
2023/02/10 10:56:16;;;;;;;16.92;8.32;;;;;;;2.70;39.94;99900.03;5073144;28;20029;-46
2023/02/10 10:58:44;;;;;;;13.30;8.25;;;;;;;2.58;39.90;99892.66;5073088;28;20024;-48
2023/02/10 11:01:12;;;;;;;16.10;8.60;;;;;;;2.48;40.09;99892.22;5072672;28;20414;-51
2023/02/10 11:03:37;;;;;;;13.48;7.78;;;;;;;2.46;39.78;99898.53;5072829;28;20024;-47
2023/02/10 11:06:14;;;;;;;17.35;7.43;;;;;;;2.49;39.87;99887.81;5073108;28;20454;-46
2023/02/10 11:08:43;;;;;;;13.35;8.18;;;;;;;2.43;40.14;99887.16;5072753;28;20127;-49
2023/02/10 11:11:13;;;;;;;16.15;8.35;;;;;;;2.48;40.04;99883.44;5072844;28;20039;-49
2023/02/10 11:13:48;;;;;;;13.20;7.13;;;;;;;2.53;39.23;99866.47;5072953;28;20123;-50
2023/02/10 11:16:15;;;;;;;17.77;8.63;;;;;;;2.51;39.17;99849.78;5072677;28;20025;-48
2023/02/10 11:18:54;;;;;;;13.32;7.93;;;;;;;2.54;39.75;99857.59;5072730;28;20123;-50
2023/02/10 11:21:20;;;;;;;17.77;8.30;;;;;;;2.44;39.37;99857.16;5071909;28;20040;-49
2023/02/10 11:23:52;;;;;;;15.57;8.38;;;;;;;2.46;39.33;99850.94;5072937;28;20036;-48
2023/02/10 11:26:19;;;;;;;15.55;8.25;;;;;;;2.47;39.37;99856.16;5072750;28;20104;-53
2023/02/10 11:28:44;;;;;;;16.98;9.32;;;;;;;2.43;39.49;99847.53;5072689;28;20024;-50
2023/02/10 11:31:21;;;;;;;16.05;9.10;;;;;;;2.51;39.73;99849.78;5073020;28;20343;-50